Chicago, Illinois
Traffic Map
Current Weather Conditions
Chicago, Illinois
Few Clouds
Few Clouds

Feels Like: 5°
Wind Chill: Ceiling: Unl
Heat Index: Visibility: 10mi
Dew Point: -1° Wind: 8mph
Humidity: 58% Direction: 250° (WSW)
Pressure: 30.06in Gusts: 0mph
Raw Report DataKMDW 301353Z 25007KT 10SM FEW085 07/M01 A3006 RMK AO2 SLP184 T00721006
Traffic Incident Summary
Active as of:
Severity:
Category:
InformationThere was an issue retrieving the traffic information for this location. Please try a different location or try again shortly.
Advertisements
Track Severe Weather on mobile